sensor_id;sensor_type;location;lat;lon;timestamp;P1;durP1;ratioP1;P2;durP2;ratioP2
65665;SDS011;52365;47.464;18.976;2023-02-15T00:00:12;33.65;;;21.08;;
65665;SDS011;52365;47.464;18.976;2023-02-15T00:00:48;31.30;;;19.70;;
65665;SDS011;52365;47.464;18.976;2023-02-15T00:01:24;33.70;;;20.60;;
65665;SDS011;52365;47.464;18.976;2023-02-15T00:02:01;36.33;;;21.60;;
65665;SDS011;52365;47.464;18.976;2023-02-15T00:02:37;34.00;;;20.85;;
65665;SDS011;52365;47.464;18.976;2023-02-15T00:03:15;34.95;;;21.48;;
65665;SDS011;52365;47.464;18.976;2023-02-15T00:03:52;35.80;;;20.58;;
65665;SDS011;52365;47.464;18.976;2023-02-15T00:04:28;34.00;;;21.27;;
65665;SDS011;52365;47.464;18.976;2023-02-15T00:05:21;31.85;;;20.08;;
65665;SDS011;52365;47.464;18.976;2023-02-15T00:05:57;34.53;;;20.92;;
65665;SDS011;52365;47.464;18.976;2023-02-15T00:06:33;34.05;;;20.62;;
65665;SDS011;52365;47.464;18.976;2023-02-15T00:07:10;33.97;;;21.08;;
65665;SDS011;52365;47.464;18.976;2023-02-15T00:07:46;33.40;;;21.12;;
65665;SDS011;52365;47.464;18.976;2023-02-15T00:08:22;33.60;;;20.77;;
65665;SDS011;52365;47.464;18.976;2023-02-15T00:08:58;32.42;;;20.45;;
65665;SDS011;52365;47.464;18.976;2023-02-15T00:09:35;32.88;;;20.23;;
65665;SDS011;52365;47.464;18.976;2023-02-15T00:10:11;35.10;;;21.85;;
65665;SDS011;52365;47.464;18.976;2023-02-15T00:10:47;33.00;;;20.60;;
65665;SDS011;52365;47.464;18.976;2023-02-15T00:11:23;31.23;;;19.65;;
65665;SDS011;52365;47.464;18.976;2023-02-15T00:12:15;32.47;;;20.00;;
65665;SDS011;52365;47.464;18.976;2023-02-15T00:12:52;33.55;;;20.55;;
65665;SDS011;52365;47.464;18.976;2023-02-15T00:13:28;35.03;;;20.70;;
65665;SDS011;52365;47.464;18.976;2023-02-15T00:14:09;35.67;;;21.12;;
65665;SDS011;52365;47.464;18.976;2023-02-15T00:14:45;33.33;;;20.10;;
65665;SDS011;52365;47.464;18.976;2023-02-15T00:15:21;34.83;;;20.80;;
65665;SDS011;52365;47.464;18.976;2023-02-15T00:16:03;31.40;;;20.17;;
65665;SDS011;52365;47.464;18.976;2023-02-15T00:16:42;33.00;;;21.08;;
65665;SDS011;52365;47.464;18.976;2023-02-15T00:17:20;35.45;;;20.62;;
65665;SDS011;52365;47.464;18.976;2023-02-15T00:17:56;35.38;;;20.90;;
65665;SDS011;52365;47.464;18.976;2023-02-15T00:18:33;34.25;;;21.25;;
65665;SDS011;52365;47.464;18.976;2023-02-15T00:19:09;34.72;;;20.88;;
65665;SDS011;52365;47.464;18.976;2023-02-15T00:19:47;35.92;;;20.67;;
65665;SDS011;52365;47.464;18.976;2023-02-15T00:20:23;34.63;;;20.85;;
65665;SDS011;52365;47.464;18.976;2023-02-15T00:21:03;36.60;;;21.52;;
65665;SDS011;52365;47.464;18.976;2023-02-15T00:21:43;34.63;;;21.30;;
65665;SDS011;52365;47.464;18.976;2023-02-15T00:22:19;34.55;;;20.27;;
65665;SDS011;52365;47.464;18.976;2023-02-15T00:22:55;32.22;;;20.05;;
65665;SDS011;52365;47.464;18.976;2023-02-15T00:23:32;33.42;;;20.12;;
65665;SDS011;52365;47.464;18.976;2023-02-15T00:24:08;32.60;;;20.15;;
65665;SDS011;52365;47.464;18.976;2023-02-15T00:24:46;33.63;;;20.15;;
65665;SDS011;52365;47.464;18.976;2023-02-15T00:25:22;33.25;;;20.05;;
65665;SDS011;52365;47.464;18.976;2023-02-15T00:26:05;32.88;;;19.50;;
65665;SDS011;52365;47.464;18.976;2023-02-15T00:26:46;31.50;;;18.75;;
65665;SDS011;52365;47.464;18.976;2023-02-15T00:27:23;30.12;;;19.02;;
65665;SDS011;52365;47.464;18.976;2023-02-15T00:27:59;29.37;;;18.67;;
65665;SDS011;52365;47.464;18.976;2023-02-15T00:28:35;31.90;;;19.37;;
65665;SDS011;52365;47.464;18.976;2023-02-15T00:29:12;31.27;;;19.15;;
65665;SDS011;52365;47.464;18.976;2023-02-15T00:29:50;30.42;;;18.87;;
65665;SDS011;52365;47.464;18.976;2023-02-15T00:30:26;30.75;;;18.37;;
65665;SDS011;52365;47.464;18.976;2023-02-15T00:31:03;31.15;;;19.25;;
65665;SDS011;52365;47.464;18.976;2023-02-15T00:31:40;29.52;;;18.55;;
65665;SDS011;52365;47.464;18.976;2023-02-15T00:32:16;30.10;;;17.70;;
65665;SDS011;52365;47.464;18.976;2023-02-15T00:32:52;30.27;;;19.05;;
65665;SDS011;52365;47.464;18.976;2023-02-15T00:33:28;29.25;;;17.75;;
65665;SDS011;52365;47.464;18.976;2023-02-15T00:34:06;27.60;;;17.00;;
65665;SDS011;52365;47.464;18.976;2023-02-15T00:34:43;28.02;;;17.52;;
65665;SDS011;52365;47.464;18.976;2023-02-15T00:35:19;28.58;;;17.45;;
65665;SDS011;52365;47.464;18.976;2023-02-15T00:35:56;27.90;;;17.42;;
65665;SDS011;52365;47.464;18.976;2023-02-15T00:36:33;28.50;;;17.02;;
65665;SDS011;52365;47.464;18.976;2023-02-15T00:37:09;29.65;;;17.40;;
65665;SDS011;52365;47.464;18.976;2023-02-15T00:37:45;29.77;;;17.30;;
65665;SDS011;52365;47.464;18.976;2023-02-15T00:38:21;26.08;;;16.83;;
65665;SDS011;52365;47.464;18.976;2023-02-15T00:38:57;28.98;;;17.12;;
65665;SDS011;52365;47.464;18.976;2023-02-15T00:39:33;27.37;;;17.23;;
65665;SDS011;52365;47.464;18.976;2023-02-15T00:40:09;29.80;;;17.98;;
65665;SDS011;52365;47.464;18.976;2023-02-15T00:40:51;28.87;;;17.73;;
65665;SDS011;52365;47.464;18.976;2023-02-15T00:41:28;30.10;;;18.37;;
65665;SDS011;52365;47.464;18.976;2023-02-15T00:42:04;31.10;;;18.60;;
65665;SDS011;52365;47.464;18.976;2023-02-15T00:42:40;29.08;;;18.48;;
65665;SDS011;52365;47.464;18.976;2023-02-15T00:43:16;30.25;;;18.37;;
65665;SDS011;52365;47.464;18.976;2023-02-15T00:43:52;28.23;;;17.83;;
65665;SDS011;52365;47.464;18.976;2023-02-15T00:44:28;27.50;;;16.83;;
65665;SDS011;52365;47.464;18.976;2023-02-15T00:45:04;29.65;;;17.70;;
65665;SDS011;52365;47.464;18.976;2023-02-15T00:45:40;26.90;;;17.33;;
65665;SDS011;52365;47.464;18.976;2023-02-15T00:46:17;29.50;;;17.98;;
65665;SDS011;52365;47.464;18.976;2023-02-15T00:46:53;29.95;;;18.75;;
65665;SDS011;52365;47.464;18.976;2023-02-15T00:47:29;28.35;;;17.98;;
65665;SDS011;52365;47.464;18.976;2023-02-15T00:48:05;30.58;;;18.87;;
65665;SDS011;52365;47.464;18.976;2023-02-15T00:48:41;27.92;;;17.62;;
65665;SDS011;52365;47.464;18.976;2023-02-15T00:49:17;28.33;;;17.45;;
65665;SDS011;52365;47.464;18.976;2023-02-15T00:49:53;27.92;;;17.33;;
65665;SDS011;52365;47.464;18.976;2023-02-15T00:50:29;26.85;;;16.85;;
65665;SDS011;52365;47.464;18.976;2023-02-15T00:51:05;27.42;;;17.02;;
65665;SDS011;52365;47.464;18.976;2023-02-15T00:51:41;29.10;;;17.12;;
65665;SDS011;52365;47.464;18.976;2023-02-15T00:52:17;28.73;;;17.40;;
65665;SDS011;52365;47.464;18.976;2023-02-15T00:52:53;27.75;;;16.50;;
65665;SDS011;52365;47.464;18.976;2023-02-15T00:53:29;26.33;;;16.17;;
65665;SDS011;52365;47.464;18.976;2023-02-15T00:54:06;26.45;;;16.20;;
65665;SDS011;52365;47.464;18.976;2023-02-15T00:54:42;27.48;;;16.42;;
65665;SDS011;52365;47.464;18.976;2023-02-15T00:55:18;26.85;;;16.23;;
65665;SDS011;52365;47.464;18.976;2023-02-15T00:55:54;26.27;;;16.25;;
65665;SDS011;52365;47.464;18.976;2023-02-15T00:56:30;26.58;;;15.63;;
65665;SDS011;52365;47.464;18.976;2023-02-15T00:57:07;26.05;;;15.90;;
65665;SDS011;52365;47.464;18.976;2023-02-15T00:57:43;27.77;;;16.60;;
65665;SDS011;52365;47.464;18.976;2023-02-15T00:58:19;26.00;;;16.42;;
65665;SDS011;52365;47.464;18.976;2023-02-15T00:58:55;27.27;;;15.95;;
65665;SDS011;52365;47.464;18.976;2023-02-15T00:59:31;26.25;;;16.30;;
65665;SDS011;52365;47.464;18.976;2023-02-15T01:00:07;25.85;;;15.65;;
65665;SDS011;52365;47.464;18.976;2023-02-15T01:00:44;27.00;;;16.23;;
65665;SDS011;52365;47.464;18.976;2023-02-15T01:01:21;25.95;;;15.95;;
65665;SDS011;52365;47.464;18.976;2023-02-15T01:01:58;26.30;;;16.40;;
65665;SDS011;52365;47.464;18.976;2023-02-15T01:02:35;25.77;;;16.12;;
65665;SDS011;52365;47.464;18.976;2023-02-15T01:03:11;26.15;;;16.27;;
65665;SDS011;52365;47.464;18.976;2023-02-15T01:03:49;26.45;;;16.02;;
65665;SDS011;52365;47.464;18.976;2023-02-15T01:04:25;25.08;;;15.55;;
65665;SDS011;52365;47.464;18.976;2023-02-15T01:05:01;26.45;;;16.17;;
65665;SDS011;52365;47.464;18.976;2023-02-15T01:05:38;26.77;;;16.35;;
65665;SDS011;52365;47.464;18.976;2023-02-15T01:06:14;25.35;;;15.60;;
65665;SDS011;52365;47.464;18.976;2023-02-15T01:06:51;25.23;;;16.05;;
65665;SDS011;52365;47.464;18.976;2023-02-15T01:07:27;25.62;;;15.60;;
65665;SDS011;52365;47.464;18.976;2023-02-15T01:08:03;26.58;;;16.60;;
65665;SDS011;52365;47.464;18.976;2023-02-15T01:08:40;26.67;;;16.12;;
65665;SDS011;52365;47.464;18.976;2023-02-15T01:09:16;26.27;;;16.05;;
65665;SDS011;52365;47.464;18.976;2023-02-15T01:09:52;26.98;;;16.10;;
65665;SDS011;52365;47.464;18.976;2023-02-15T01:10:28;25.98;;;15.45;;
65665;SDS011;52365;47.464;18.976;2023-02-15T01:11:09;27.35;;;16.55;;
65665;SDS011;52365;47.464;18.976;2023-02-15T01:11:47;27.65;;;16.15;;
65665;SDS011;52365;47.464;18.976;2023-02-15T01:12:23;28.38;;;16.75;;
65665;SDS011;52365;47.464;18.976;2023-02-15T01:12:59;29.70;;;17.90;;
65665;SDS011;52365;47.464;18.976;2023-02-15T01:13:35;30.73;;;17.65;;
65665;SDS011;52365;47.464;18.976;2023-02-15T01:14:11;27.67;;;17.25;;
65665;SDS011;52365;47.464;18.976;2023-02-15T01:14:48;28.33;;;17.35;;
65665;SDS011;52365;47.464;18.976;2023-02-15T01:15:24;28.98;;;17.33;;
65665;SDS011;52365;47.464;18.976;2023-02-15T01:16:01;29.92;;;17.92;;
65665;SDS011;52365;47.464;18.976;2023-02-15T01:16:38;28.02;;;17.37;;
65665;SDS011;52365;47.464;18.976;2023-02-15T01:17:14;28.50;;;16.73;;
65665;SDS011;52365;47.464;18.976;2023-02-15T01:17:50;28.02;;;17.17;;
65665;SDS011;52365;47.464;18.976;2023-02-15T01:18:28;27.83;;;16.80;;
65665;SDS011;52365;47.464;18.976;2023-02-15T01:19:04;27.73;;;16.12;;
65665;SDS011;52365;47.464;18.976;2023-02-15T01:19:41;27.90;;;17.05;;
65665;SDS011;52365;47.464;18.976;2023-02-15T01:20:23;26.48;;;16.25;;
65665;SDS011;52365;47.464;18.976;2023-02-15T01:21:08;29.25;;;17.12;;
65665;SDS011;52365;47.464;18.976;2023-02-15T01:21:49;28.08;;;17.02;;
65665;SDS011;52365;47.464;18.976;2023-02-15T01:22:25;27.37;;;16.83;;
65665;SDS011;52365;47.464;18.976;2023-02-15T01:23:01;28.27;;;17.60;;
65665;SDS011;52365;47.464;18.976;2023-02-15T01:23:37;28.90;;;17.67;;
65665;SDS011;52365;47.464;18.976;2023-02-15T01:24:13;27.20;;;16.37;;
65665;SDS011;52365;47.464;18.976;2023-02-15T01:24:50;27.33;;;16.77;;
65665;SDS011;52365;47.464;18.976;2023-02-15T01:25:26;27.02;;;16.62;;
65665;SDS011;52365;47.464;18.976;2023-02-15T01:26:02;28.25;;;16.77;;
65665;SDS011;52365;47.464;18.976;2023-02-15T01:26:38;29.40;;;17.02;;
65665;SDS011;52365;47.464;18.976;2023-02-15T01:27:14;27.62;;;16.50;;
65665;SDS011;52365;47.464;18.976;2023-02-15T01:27:51;30.17;;;17.23;;
65665;SDS011;52365;47.464;18.976;2023-02-15T01:28:27;28.30;;;17.15;;
65665;SDS011;52365;47.464;18.976;2023-02-15T01:29:03;26.60;;;16.40;;
65665;SDS011;52365;47.464;18.976;2023-02-15T01:29:39;26.75;;;16.70;;
65665;SDS011;52365;47.464;18.976;2023-02-15T01:30:15;28.80;;;17.12;;
65665;SDS011;52365;47.464;18.976;2023-02-15T01:30:52;29.70;;;17.27;;
65665;SDS011;52365;47.464;18.976;2023-02-15T01:31:28;28.87;;;17.08;;
65665;SDS011;52365;47.464;18.976;2023-02-15T01:32:04;26.33;;;16.60;;
65665;SDS011;52365;47.464;18.976;2023-02-15T01:32:40;28.65;;;16.67;;
65665;SDS011;52365;47.464;18.976;2023-02-15T01:33:17;27.08;;;16.52;;
65665;SDS011;52365;47.464;18.976;2023-02-15T01:33:53;28.50;;;16.65;;
65665;SDS011;52365;47.464;18.976;2023-02-15T01:34:29;26.62;;;16.98;;
65665;SDS011;52365;47.464;18.976;2023-02-15T01:35:06;29.35;;;16.50;;
65665;SDS011;52365;47.464;18.976;2023-02-15T01:35:43;25.70;;;16.02;;
65665;SDS011;52365;47.464;18.976;2023-02-15T01:36:21;25.55;;;15.48;;
65665;SDS011;52365;47.464;18.976;2023-02-15T01:36:57;25.48;;;15.85;;
65665;SDS011;52365;47.464;18.976;2023-02-15T01:37:33;25.83;;;15.77;;
65665;SDS011;52365;47.464;18.976;2023-02-15T01:38:10;23.40;;;14.75;;
65665;SDS011;52365;47.464;18.976;2023-02-15T01:38:46;26.55;;;15.20;;
65665;SDS011;52365;47.464;18.976;2023-02-15T01:39:23;26.80;;;15.48;;
65665;SDS011;52365;47.464;18.976;2023-02-15T01:39:59;25.55;;;15.07;;
65665;SDS011;52365;47.464;18.976;2023-02-15T01:40:36;24.75;;;15.25;;
65665;SDS011;52365;47.464;18.976;2023-02-15T01:41:12;25.33;;;14.98;;
65665;SDS011;52365;47.464;18.976;2023-02-15T01:42:04;29.00;;;16.15;;
65665;SDS011;52365;47.464;18.976;2023-02-15T01:42:40;24.48;;;14.93;;
65665;SDS011;52365;47.464;18.976;2023-02-15T01:43:16;23.62;;;14.60;;
65665;SDS011;52365;47.464;18.976;2023-02-15T01:43:56;26.40;;;15.60;;
65665;SDS011;52365;47.464;18.976;2023-02-15T01:44:48;24.80;;;14.98;;
65665;SDS011;52365;47.464;18.976;2023-02-15T01:45:31;26.02;;;15.07;;
65665;SDS011;52365;47.464;18.976;2023-02-15T01:46:07;23.33;;;14.87;;
65665;SDS011;52365;47.464;18.976;2023-02-15T01:46:47;26.85;;;16.02;;
65665;SDS011;52365;47.464;18.976;2023-02-15T01:47:35;24.60;;;14.90;;
65665;SDS011;52365;47.464;18.976;2023-02-15T01:48:20;24.85;;;15.00;;
65665;SDS011;52365;47.464;18.976;2023-02-15T01:49:03;25.08;;;14.68;;
65665;SDS011;52365;47.464;18.976;2023-02-15T01:49:44;24.30;;;14.32;;
65665;SDS011;52365;47.464;18.976;2023-02-15T01:50:25;25.77;;;15.13;;
65665;SDS011;52365;47.464;18.976;2023-02-15T01:51:03;24.50;;;15.38;;
65665;SDS011;52365;47.464;18.976;2023-02-15T01:51:39;24.10;;;15.13;;
65665;SDS011;52365;47.464;18.976;2023-02-15T01:52:17;23.45;;;14.80;;
65665;SDS011;52365;47.464;18.976;2023-02-15T01:52:55;25.88;;;15.80;;
65665;SDS011;52365;47.464;18.976;2023-02-15T01:53:47;25.37;;;15.30;;
65665;SDS011;52365;47.464;18.976;2023-02-15T01:54:34;25.95;;;16.00;;
65665;SDS011;52365;47.464;18.976;2023-02-15T01:55:14;25.55;;;16.20;;
65665;SDS011;52365;47.464;18.976;2023-02-15T01:56:25;27.00;;;15.75;;
65665;SDS011;52365;47.464;18.976;2023-02-15T01:57:03;26.83;;;15.85;;
65665;SDS011;52365;47.464;18.976;2023-02-15T01:57:44;25.25;;;15.55;;
65665;SDS011;52365;47.464;18.976;2023-02-15T01:58:22;27.15;;;16.33;;
65665;SDS011;52365;47.464;18.976;2023-02-15T01:59:03;26.58;;;16.50;;
65665;SDS011;52365;47.464;18.976;2023-02-15T01:59:46;26.83;;;16.25;;
65665;SDS011;52365;47.464;18.976;2023-02-15T02:00:26;26.67;;;16.05;;
65665;SDS011;52365;47.464;18.976;2023-02-15T02:01:03;26.23;;;15.27;;
65665;SDS011;52365;47.464;18.976;2023-02-15T02:01:43;24.50;;;15.13;;
65665;SDS011;52365;47.464;18.976;2023-02-15T02:02:19;24.55;;;15.32;;
65665;SDS011;52365;47.464;18.976;2023-02-15T02:02:59;23.87;;;15.15;;
65665;SDS011;52365;47.464;18.976;2023-02-15T02:04:38;25.65;;;15.65;;
65665;SDS011;52365;47.464;18.976;2023-02-15T02:05:26;24.87;;;14.80;;
65665;SDS011;52365;47.464;18.976;2023-02-15T02:06:03;26.45;;;16.08;;
65665;SDS011;52365;47.464;18.976;2023-02-15T02:06:39;25.88;;;15.85;;
65665;SDS011;52365;47.464;18.976;2023-02-15T02:07:16;25.00;;;15.60;;
65665;SDS011;52365;47.464;18.976;2023-02-15T02:07:56;26.75;;;15.68;;
65665;SDS011;52365;47.464;18.976;2023-02-15T02:08:34;23.92;;;15.55;;
65665;SDS011;52365;47.464;18.976;2023-02-15T02:09:10;24.27;;;15.43;;
65665;SDS011;52365;47.464;18.976;2023-02-15T02:09:47;25.45;;;15.13;;
65665;SDS011;52365;47.464;18.976;2023-02-15T02:10:24;26.42;;;15.48;;
65665;SDS011;52365;47.464;18.976;2023-02-15T02:11:01;25.95;;;15.55;;
65665;SDS011;52365;47.464;18.976;2023-02-15T02:11:37;25.70;;;15.95;;
65665;SDS011;52365;47.464;18.976;2023-02-15T02:12:16;25.92;;;16.17;;
65665;SDS011;52365;47.464;18.976;2023-02-15T02:12:58;24.90;;;15.40;;
65665;SDS011;52365;47.464;18.976;2023-02-15T02:13:38;26.55;;;16.17;;
65665;SDS011;52365;47.464;18.976;2023-02-15T02:14:16;28.42;;;16.50;;
65665;SDS011;52365;47.464;18.976;2023-02-15T02:14:53;27.13;;;16.37;;
65665;SDS011;52365;47.464;18.976;2023-02-15T02:16:15;25.62;;;15.73;;
65665;SDS011;52365;47.464;18.976;2023-02-15T02:19:28;25.75;;;15.82;;
65665;SDS011;52365;47.464;18.976;2023-02-15T02:21:35;26.27;;;15.75;;
65665;SDS011;52365;47.464;18.976;2023-02-15T02:25:20;29.73;;;17.05;;
65665;SDS011;52365;47.464;18.976;2023-02-15T02:26:23;28.85;;;16.80;;
65665;SDS011;52365;47.464;18.976;2023-02-15T02:27:15;29.65;;;17.17;;
65665;SDS011;52365;47.464;18.976;2023-02-15T02:33:23;27.25;;;16.55;;
65665;SDS011;52365;47.464;18.976;2023-02-15T02:37:45;28.80;;;17.25;;
65665;SDS011;52365;47.464;18.976;2023-02-15T02:38:42;27.80;;;17.40;;
65665;SDS011;52365;47.464;18.976;2023-02-15T02:40:15;31.65;;;17.70;;
65665;SDS011;52365;47.464;18.976;2023-02-15T02:42:43;29.45;;;17.42;;
65665;SDS011;52365;47.464;18.976;2023-02-15T02:44:41;29.33;;;17.70;;
65665;SDS011;52365;47.464;18.976;2023-02-15T02:45:20;28.75;;;17.05;;
65665;SDS011;52365;47.464;18.976;2023-02-15T02:46:05;30.48;;;17.50;;
65665;SDS011;52365;47.464;18.976;2023-02-15T02:47:47;30.20;;;17.60;;
65665;SDS011;52365;47.464;18.976;2023-02-15T02:48:27;28.60;;;17.33;;
65665;SDS011;52365;47.464;18.976;2023-02-15T02:49:06;29.45;;;17.75;;
65665;SDS011;52365;47.464;18.976;2023-02-15T02:49:42;29.58;;;16.52;;
65665;SDS011;52365;47.464;18.976;2023-02-15T02:50:24;28.77;;;16.85;;
65665;SDS011;52365;47.464;18.976;2023-02-15T02:51:02;26.62;;;16.60;;
65665;SDS011;52365;47.464;18.976;2023-02-15T02:51:38;27.00;;;16.40;;
65665;SDS011;52365;47.464;18.976;2023-02-15T02:53:23;27.95;;;16.98;;
65665;SDS011;52365;47.464;18.976;2023-02-15T02:54:00;27.92;;;16.35;;
65665;SDS011;52365;47.464;18.976;2023-02-15T02:54:41;25.92;;;15.57;;
65665;SDS011;52365;47.464;18.976;2023-02-15T02:55:39;28.52;;;16.30;;
65665;SDS011;52365;47.464;18.976;2023-02-15T02:57:05;25.15;;;15.82;;
65665;SDS011;52365;47.464;18.976;2023-02-15T02:59:29;27.05;;;15.52;;
65665;SDS011;52365;47.464;18.976;2023-02-15T02:59:47;26.92;;;16.02;;
65665;SDS011;52365;47.464;18.976;2023-02-15T03:00:26;25.67;;;15.38;;
65665;SDS011;52365;47.464;18.976;2023-02-15T03:01:10;26.33;;;16.08;;
65665;SDS011;52365;47.464;18.976;2023-02-15T03:01:55;26.08;;;16.17;;
65665;SDS011;52365;47.464;18.976;2023-02-15T03:02:43;27.20;;;16.12;;
65665;SDS011;52365;47.464;18.976;2023-02-15T03:03:27;25.85;;;15.68;;
65665;SDS011;52365;47.464;18.976;2023-02-15T03:04:27;26.65;;;16.12;;
65665;SDS011;52365;47.464;18.976;2023-02-15T03:05:08;25.25;;;15.35;;
65665;SDS011;52365;47.464;18.976;2023-02-15T03:05:50;26.37;;;15.80;;
65665;SDS011;52365;47.464;18.976;2023-02-15T03:06:33;27.17;;;16.02;;
65665;SDS011;52365;47.464;18.976;2023-02-15T03:07:17;24.55;;;15.43;;
65665;SDS011;52365;47.464;18.976;2023-02-15T03:07:57;25.27;;;15.60;;
65665;SDS011;52365;47.464;18.976;2023-02-15T03:08:38;24.33;;;15.32;;
65665;SDS011;52365;47.464;18.976;2023-02-15T03:09:23;24.95;;;14.98;;
65665;SDS011;52365;47.464;18.976;2023-02-15T03:10:10;27.23;;;15.77;;
65665;SDS011;52365;47.464;18.976;2023-02-15T03:10:46;25.83;;;15.95;;
65665;SDS011;52365;47.464;18.976;2023-02-15T03:11:23;26.35;;;15.55;;
65665;SDS011;52365;47.464;18.976;2023-02-15T03:11:59;27.10;;;15.98;;
65665;SDS011;52365;47.464;18.976;2023-02-15T03:12:39;26.62;;;15.80;;
65665;SDS011;52365;47.464;18.976;2023-02-15T03:13:16;25.55;;;15.60;;
65665;SDS011;52365;47.464;18.976;2023-02-15T03:13:52;24.80;;;15.25;;
65665;SDS011;52365;47.464;18.976;2023-02-15T03:14:29;26.35;;;16.17;;
65665;SDS011;52365;47.464;18.976;2023-02-15T03:15:16;25.23;;;15.40;;
65665;SDS011;52365;47.464;18.976;2023-02-15T03:16:00;25.27;;;15.32;;
65665;SDS011;52365;47.464;18.976;2023-02-15T03:16:56;27.05;;;16.15;;
65665;SDS011;52365;47.464;18.976;2023-02-15T03:17:35;26.30;;;15.70;;
65665;SDS011;52365;47.464;18.976;2023-02-15T03:18:17;25.02;;;15.70;;
65665;SDS011;52365;47.464;18.976;2023-02-15T03:19:26;24.92;;;15.27;;
65665;SDS011;52365;47.464;18.976;2023-02-15T03:20:09;25.77;;;15.60;;
65665;SDS011;52365;47.464;18.976;2023-02-15T03:20:51;25.25;;;15.25;;
65665;SDS011;52365;47.464;18.976;2023-02-15T03:21:36;24.98;;;15.35;;
65665;SDS011;52365;47.464;18.976;2023-02-15T03:22:25;24.80;;;15.23;;
65665;SDS011;52365;47.464;18.976;2023-02-15T03:23:12;25.37;;;15.40;;
65665;SDS011;52365;47.464;18.976;2023-02-15T03:23:54;26.23;;;15.50;;
65665;SDS011;52365;47.464;18.976;2023-02-15T03:24:38;25.48;;;15.50;;
65665;SDS011;52365;47.464;18.976;2023-02-15T03:25:21;24.27;;;15.02;;
65665;SDS011;52365;47.464;18.976;2023-02-15T03:26:05;25.70;;;15.57;;
65665;SDS011;52365;47.464;18.976;2023-02-15T03:26:43;25.27;;;14.98;;
65665;SDS011;52365;47.464;18.976;2023-02-15T03:27:23;25.03;;;14.90;;
65665;SDS011;52365;47.464;18.976;2023-02-15T03:28:03;23.30;;;14.87;;
65665;SDS011;52365;47.464;18.976;2023-02-15T03:28:45;25.08;;;15.45;;
65665;SDS011;52365;47.464;18.976;2023-02-15T03:29:23;25.75;;;15.55;;
65665;SDS011;52365;47.464;18.976;2023-02-15T03:30:03;27.17;;;15.63;;
65665;SDS011;52365;47.464;18.976;2023-02-15T03:30:42;24.45;;;15.18;;
65665;SDS011;52365;47.464;18.976;2023-02-15T03:31:23;25.90;;;15.30;;
65665;SDS011;52365;47.464;18.976;2023-02-15T03:32:05;27.60;;;16.10;;
65665;SDS011;52365;47.464;18.976;2023-02-15T03:32:44;24.87;;;15.40;;
65665;SDS011;52365;47.464;18.976;2023-02-15T03:33:23;24.00;;;14.27;;
65665;SDS011;52365;47.464;18.976;2023-02-15T03:34:03;26.92;;;15.43;;
65665;SDS011;52365;47.464;18.976;2023-02-15T03:34:42;24.85;;;14.98;;
65665;SDS011;52365;47.464;18.976;2023-02-15T03:35:20;25.02;;;15.35;;
65665;SDS011;52365;47.464;18.976;2023-02-15T03:36:20;24.80;;;15.27;;
65665;SDS011;52365;47.464;18.976;2023-02-15T03:38:06;26.23;;;15.80;;
65665;SDS011;52365;47.464;18.976;2023-02-15T03:38:49;26.75;;;15.75;;
65665;SDS011;52365;47.464;18.976;2023-02-15T03:39:50;27.00;;;15.82;;
65665;SDS011;52365;47.464;18.976;2023-02-15T03:40:32;26.40;;;15.90;;
65665;SDS011;52365;47.464;18.976;2023-02-15T03:41:37;28.25;;;16.20;;
65665;SDS011;52365;47.464;18.976;2023-02-15T03:42:22;26.95;;;16.20;;
65665;SDS011;52365;47.464;18.976;2023-02-15T03:43:21;25.70;;;15.32;;
65665;SDS011;52365;47.464;18.976;2023-02-15T03:44:06;27.70;;;16.20;;
65665;SDS011;52365;47.464;18.976;2023-02-15T03:45:34;26.48;;;15.30;;
65665;SDS011;52365;47.464;18.976;2023-02-15T03:47:33;25.40;;;15.65;;
65665;SDS011;52365;47.464;18.976;2023-02-15T03:48:12;25.35;;;15.63;;
65665;SDS011;52365;47.464;18.976;2023-02-15T03:48:53;25.45;;;15.45;;
65665;SDS011;52365;47.464;18.976;2023-02-15T03:49:42;24.17;;;14.98;;
65665;SDS011;52365;47.464;18.976;2023-02-15T03:50:24;25.67;;;15.48;;
65665;SDS011;52365;47.464;18.976;2023-02-15T03:51:25;26.23;;;15.18;;
65665;SDS011;52365;47.464;18.976;2023-02-15T03:52:10;25.50;;;15.23;;
65665;SDS011;52365;47.464;18.976;2023-02-15T03:52:49;25.00;;;15.32;;
65665;SDS011;52365;47.464;18.976;2023-02-15T03:53:25;25.23;;;15.30;;
65665;SDS011;52365;47.464;18.976;2023-02-15T03:54:12;26.92;;;15.55;;
65665;SDS011;52365;47.464;18.976;2023-02-15T03:55:11;23.95;;;15.32;;
65665;SDS011;52365;47.464;18.976;2023-02-15T03:55:49;25.88;;;15.63;;
65665;SDS011;52365;47.464;18.976;2023-02-15T03:56:30;24.48;;;15.18;;
65665;SDS011;52365;47.464;18.976;2023-02-15T03:57:07;25.83;;;15.43;;
65665;SDS011;52365;47.464;18.976;2023-02-15T03:58:06;25.42;;;15.10;;
65665;SDS011;52365;47.464;18.976;2023-02-15T03:59:01;28.00;;;15.93;;
65665;SDS011;52365;47.464;18.976;2023-02-15T04:00:00;24.55;;;15.07;;
65665;SDS011;52365;47.464;18.976;2023-02-15T04:00:59;25.20;;;15.32;;
65665;SDS011;52365;47.464;18.976;2023-02-15T04:02:08;25.20;;;15.05;;
65665;SDS011;52365;47.464;18.976;2023-02-15T04:03:56;24.42;;;14.77;;
65665;SDS011;52365;47.464;18.976;2023-02-15T04:04:38;24.70;;;14.90;;
65665;SDS011;52365;47.464;18.976;2023-02-15T04:05:17;23.70;;;14.60;;
65665;SDS011;52365;47.464;18.976;2023-02-15T04:05:53;23.35;;;14.43;;
65665;SDS011;52365;47.464;18.976;2023-02-15T04:06:29;23.70;;;14.80;;
65665;SDS011;52365;47.464;18.976;2023-02-15T04:07:06;25.25;;;15.38;;
65665;SDS011;52365;47.464;18.976;2023-02-15T04:07:43;25.67;;;15.45;;
65665;SDS011;52365;47.464;18.976;2023-02-15T04:08:20;25.62;;;14.98;;
65665;SDS011;52365;47.464;18.976;2023-02-15T04:08:56;25.15;;;15.43;;
65665;SDS011;52365;47.464;18.976;2023-02-15T04:09:51;24.98;;;14.85;;
65665;SDS011;52365;47.464;18.976;2023-02-15T04:10:45;24.37;;;15.00;;
65665;SDS011;52365;47.464;18.976;2023-02-15T04:11:33;23.73;;;15.05;;
65665;SDS011;52365;47.464;18.976;2023-02-15T04:12:09;24.48;;;14.85;;
65665;SDS011;52365;47.464;18.976;2023-02-15T04:12:45;25.60;;;15.50;;
65665;SDS011;52365;47.464;18.976;2023-02-15T04:13:23;24.75;;;15.18;;
65665;SDS011;52365;47.464;18.976;2023-02-15T04:14:05;25.12;;;15.50;;
65665;SDS011;52365;47.464;18.976;2023-02-15T04:15:00;27.65;;;15.68;;
65665;SDS011;52365;47.464;18.976;2023-02-15T04:15:54;27.48;;;16.08;;
65665;SDS011;52365;47.464;18.976;2023-02-15T04:16:39;24.08;;;15.32;;
65665;SDS011;52365;47.464;18.976;2023-02-15T04:17:16;27.60;;;16.10;;
65665;SDS011;52365;47.464;18.976;2023-02-15T04:17:52;26.55;;;15.82;;
65665;SDS011;52365;47.464;18.976;2023-02-15T04:18:28;27.80;;;16.05;;
65665;SDS011;52365;47.464;18.976;2023-02-15T04:19:41;23.55;;;15.05;;
65665;SDS011;52365;47.464;18.976;2023-02-15T04:20:36;24.75;;;15.05;;
65665;SDS011;52365;47.464;18.976;2023-02-15T04:21:31;25.08;;;15.60;;
65665;SDS011;52365;47.464;18.976;2023-02-15T04:22:25;26.92;;;15.88;;